createdAt,value
2018-05-27T00:14:32.329Z,15.30
2018-05-27T03:13:33.313Z,15.30
2018-05-27T03:18:54.621Z,15.40
2018-05-27T04:16:19.046Z,15.80
2018-05-27T04:18:46.555Z,15.80
2018-05-27T04:21:14.826Z,15.70
2018-05-27T04:23:43.106Z,15.70
2018-05-27T04:26:11.377Z,15.80
2018-05-27T04:28:39.667Z,15.70
2018-05-27T04:31:07.190Z,15.70
2018-05-27T04:33:34.703Z,15.80
2018-05-27T04:36:02.209Z,15.90
2018-05-27T04:38:29.723Z,16.00
2018-05-27T04:40:57.228Z,16.00
2018-05-27T04:43:24.734Z,16.00
2018-05-27T04:45:52.240Z,16.10
2018-05-27T04:48:19.745Z,16.10
2018-05-27T04:50:47.250Z,16.20
2018-05-27T04:53:14.758Z,16.30
2018-05-27T04:55:42.274Z,16.40
2018-05-27T04:58:09.782Z,16.40
2018-05-27T05:00:37.295Z,16.40
2018-05-27T05:03:04.801Z,16.30
2018-05-27T05:05:32.314Z,16.30
2018-05-27T05:07:59.828Z,16.30
2018-05-27T05:10:27.338Z,16.40
2018-05-27T05:15:48.473Z,16.50
2018-05-27T05:18:15.982Z,16.50
2018-05-27T05:20:43.518Z,16.60
2018-05-27T06:15:26.434Z,17.10
2018-05-27T06:23:08.347Z,17.10
2018-05-27T06:25:35.852Z,17.50
2018-05-27T06:28:03.361Z,17.50
2018-05-27T06:30:30.881Z,17.40
2018-05-27T06:32:58.400Z,17.40
2018-05-27T06:35:25.918Z,17.40
2018-05-27T06:37:54.199Z,17.40
2018-05-27T06:40:22.485Z,17.50
2018-05-27T06:42:50.001Z,17.50
2018-05-27T06:45:17.516Z,17.60
2018-05-27T06:47:45.032Z,17.60
2018-05-27T06:50:13.320Z,17.70
2018-05-27T06:52:41.613Z,17.70
2018-05-27T06:55:09.136Z,17.60
2018-05-27T06:57:36.652Z,17.70
2018-05-27T07:00:04.166Z,17.80
2018-05-27T07:02:31.682Z,17.90
2018-05-27T07:04:59.262Z,18.10
2018-05-27T07:07:26.741Z,18.20
2018-05-27T07:09:54.254Z,18.20
2018-05-27T07:12:21.769Z,18.40
2018-05-27T07:17:43.097Z,18.50
2018-05-27T07:25:55.801Z,18.30
2018-05-27T07:28:25.143Z,18.40
2018-05-27T07:30:52.657Z,18.40
2018-05-27T07:36:02.343Z,18.30
2018-05-27T07:38:29.862Z,18.40
2018-05-27T07:40:57.391Z,18.40
2018-05-27T07:43:25.717Z,18.80
2018-05-27T07:45:57.126Z,18.80
2018-05-27T07:48:24.681Z,18.80
2018-05-27T07:50:52.209Z,19.40
2018-05-27T07:53:19.723Z,19.80
2018-05-27T07:55:47.255Z,20.00
2018-05-27T08:04:12.100Z,19.90
2018-05-27T08:06:39.657Z,20.00
2018-05-27T08:09:07.970Z,19.80
2018-05-27T08:11:35.500Z,19.80
2018-05-27T08:17:01.413Z,19.70
2018-05-27T08:19:31.410Z,19.80
2018-05-27T08:22:09.369Z,20.00
2018-05-27T08:24:37.643Z,20.30
2018-05-27T08:27:05.912Z,20.70
2018-05-27T08:29:33.425Z,20.70
2018-05-27T08:32:00.937Z,20.90
2018-05-27T08:34:29.587Z,20.90
2018-05-27T08:36:57.103Z,20.90
2018-05-27T08:39:24.609Z,20.70
2018-05-27T08:41:52.113Z,20.50
2018-05-27T08:44:20.381Z,20.80
2018-05-27T08:46:48.657Z,21.20
2018-05-27T08:49:16.940Z,21.10
2018-05-27T08:51:45.215Z,21.20
2018-05-27T08:54:13.491Z,21.40
2018-05-27T08:56:41.768Z,21.70
2018-05-27T08:59:10.038Z,22.00
2018-05-27T09:01:38.314Z,21.90
2018-05-27T09:04:06.595Z,21.90
2018-05-27T09:06:34.864Z,22.10
2018-05-27T09:09:02.382Z,22.00
2018-05-27T09:11:29.894Z,21.90
2018-05-27T09:19:52.862Z,21.50
2018-05-27T09:25:14.354Z,21.10
2018-05-27T09:27:41.857Z,21.10
2018-05-27T09:30:09.365Z,21.30
2018-05-27T09:32:36.869Z,21.40
2018-05-27T09:35:04.373Z,21.40
2018-05-27T09:37:31.881Z,21.70
2018-05-27T09:39:59.384Z,21.70
2018-05-27T09:42:27.659Z,22.10
2018-05-27T09:44:55.961Z,22.10
2018-05-27T09:47:23.461Z,22.10
2018-05-27T09:49:50.970Z,22.20
2018-05-27T09:52:18.476Z,22.40
2018-05-27T09:54:45.982Z,22.20
2018-05-27T09:57:13.485Z,22.40
2018-05-27T09:59:40.993Z,22.50
2018-05-27T10:02:09.269Z,22.10
2018-05-27T10:04:37.549Z,22.00
2018-05-27T10:07:05.822Z,22.00
2018-05-27T10:09:34.094Z,22.20
2018-05-27T10:12:02.370Z,22.60
2018-05-27T10:14:43.569Z,22.70
2018-05-27T11:14:47.101Z,23.80
2018-05-27T11:17:14.609Z,24.00
2018-05-27T11:19:42.886Z,23.70
2018-05-27T11:25:05.065Z,26.10
2018-05-27T11:27:32.565Z,26.10
2018-05-27T11:44:16.025Z,26.20
2018-05-27T11:53:49.848Z,28.60
2018-05-27T11:56:17.964Z,26.90
2018-05-27T11:58:46.068Z,26.10
2018-05-27T12:01:13.879Z,26.00
2018-05-27T12:03:43.021Z,26.00
2018-05-27T12:06:11.021Z,26.00
2018-05-27T12:08:38.641Z,26.20
2018-05-27T12:11:06.897Z,26.00
2018-05-27T12:19:20.695Z,25.40
2018-05-27T12:21:49.409Z,24.80
2018-05-27T12:24:16.905Z,24.30
2018-05-27T12:26:46.373Z,24.20
2018-05-27T12:29:14.835Z,24.20
2018-05-27T12:31:43.448Z,24.60
2018-05-27T12:34:10.948Z,24.60
2018-05-27T12:36:38.449Z,24.60
2018-05-27T12:39:05.947Z,24.80
2018-05-27T12:41:33.544Z,25.40
2018-05-27T12:44:01.227Z,26.30
2018-05-27T12:46:28.722Z,26.30
2018-05-27T12:48:57.041Z,26.10
2018-05-27T12:51:25.317Z,25.90
2018-05-27T12:53:53.922Z,25.70
2018-05-27T12:56:22.244Z,25.70
2018-05-27T12:58:49.968Z,25.10
2018-05-27T13:01:18.393Z,25.00
2018-05-27T13:03:46.129Z,24.60
2018-05-27T13:06:13.638Z,24.20
2018-05-27T13:08:41.222Z,24.20
2018-05-27T13:11:09.485Z,24.80
2018-05-27T13:13:37.376Z,24.80
2018-05-27T13:16:04.891Z,25.40
2018-05-27T13:21:26.283Z,25.10
2018-05-27T13:23:53.789Z,26.70
2018-05-27T13:26:21.303Z,27.10
2018-05-27T13:28:48.801Z,27.30
2018-05-27T13:31:16.298Z,27.10
2018-05-27T13:33:43.813Z,26.90
2018-05-27T13:36:11.308Z,26.50
2018-05-27T13:38:39.577Z,27.10
2018-05-27T13:41:07.837Z,27.90
2018-05-27T13:43:35.343Z,27.80
2018-05-27T13:46:02.841Z,28.10
2018-05-27T13:48:30.342Z,27.90
2018-05-27T13:50:57.845Z,27.50
2018-05-27T13:53:25.349Z,27.40
2018-05-27T13:55:53.611Z,27.90
2018-05-27T13:58:21.105Z,27.90
2018-05-27T14:00:48.605Z,28.00
2018-05-27T14:03:16.107Z,28.20
2018-05-27T14:05:43.606Z,28.30
2018-05-27T14:08:11.106Z,28.30
2018-05-27T14:10:38.607Z,28.00
2018-05-27T14:13:06.105Z,27.80
2018-05-27T14:18:42.250Z,27.70
2018-05-27T14:21:26.170Z,26.90
2018-05-27T14:26:47.323Z,25.20
2018-05-27T14:29:14.829Z,26.30
2018-05-27T14:31:42.337Z,26.70
2018-05-27T14:34:09.837Z,26.90
2018-05-27T14:36:37.337Z,27.30
2018-05-27T14:39:05.620Z,27.70
2018-05-27T14:41:33.125Z,28.10
2018-05-27T14:44:00.629Z,27.60
2018-05-27T14:46:28.901Z,28.00
2018-05-27T14:48:57.164Z,28.30
2018-05-27T14:51:24.665Z,28.30
2018-05-27T14:53:52.165Z,28.50
2018-05-27T14:56:19.662Z,28.20
2018-05-27T14:58:47.165Z,27.80
2018-05-27T15:01:14.680Z,27.60
2018-05-27T15:03:42.180Z,27.50
2018-05-27T15:06:09.676Z,28.00
2018-05-27T15:08:37.181Z,28.20
2018-05-27T15:11:04.682Z,28.30
2018-05-27T16:17:08.709Z,25.60
2018-05-27T16:22:29.781Z,26.90
2018-05-27T16:24:57.293Z,26.90
2018-05-27T16:27:24.802Z,26.90
2018-05-27T16:29:53.077Z,26.90
2018-05-27T16:32:21.381Z,26.80
2018-05-27T16:34:49.645Z,26.90
2018-05-27T16:37:17.921Z,26.80
2018-05-27T16:39:46.197Z,26.70
2018-05-27T16:42:14.474Z,26.80
2018-05-27T16:44:42.741Z,26.40
2018-05-27T16:47:11.004Z,26.00
2018-05-27T16:49:39.200Z,25.90
2018-05-27T16:52:06.709Z,25.90
2018-05-27T16:54:34.938Z,26.10
2018-05-27T16:57:02.505Z,26.00
2018-05-27T16:59:30.772Z,26.00
2018-05-27T17:01:59.040Z,25.90
2018-05-27T17:04:27.309Z,25.80
2018-05-27T17:06:54.818Z,25.70
2018-05-27T17:09:22.325Z,25.80
2018-05-27T17:11:49.831Z,25.60
2018-05-27T17:14:17.953Z,25.60
2018-05-27T17:16:45.468Z,25.60
2018-05-27T17:22:26.804Z,24.80
2018-05-27T17:27:47.753Z,24.80
2018-05-27T17:30:15.253Z,24.70
2018-05-27T17:32:42.765Z,24.60
2018-05-27T17:35:10.270Z,24.30
2018-05-27T17:37:37.778Z,24.10
2018-05-27T17:40:05.282Z,24.10
2018-05-27T17:42:32.790Z,24.10
2018-05-27T17:45:00.292Z,23.90
2018-05-27T17:47:27.805Z,23.70
2018-05-27T17:49:55.326Z,23.60
2018-05-27T17:52:22.837Z,23.40
2018-05-27T17:54:50.349Z,23.30
2018-05-27T17:57:17.865Z,23.10
2018-05-27T17:59:45.401Z,23.10
2018-05-27T18:02:14.653Z,23.00
2018-05-27T18:04:42.478Z,22.90
2018-05-27T18:07:11.652Z,22.60
2018-05-27T18:09:39.162Z,22.60
2018-05-27T18:12:07.428Z,22.20
2018-05-27T18:23:16.009Z,20.50
2018-05-27T18:25:44.281Z,21.60
2018-05-27T18:28:12.552Z,21.40
2018-05-27T18:30:40.057Z,21.40
2018-05-27T18:33:07.573Z,21.30
2018-05-27T18:35:35.083Z,21.20
2018-05-27T18:38:02.589Z,21.00
2018-05-27T18:40:30.109Z,20.90
2018-05-27T18:42:57.620Z,20.80
2018-05-27T18:45:25.137Z,20.70
2018-05-27T18:47:52.645Z,20.60
2018-05-27T18:50:20.937Z,20.50
2018-05-27T18:52:48.449Z,20.40
2018-05-27T18:55:15.955Z,20.30
2018-05-27T18:57:43.462Z,20.20
2018-05-27T19:00:10.969Z,20.00
2018-05-27T19:02:38.475Z,19.90
2018-05-27T19:05:05.988Z,19.80
2018-05-27T19:07:33.498Z,19.70
2018-05-27T19:10:01.009Z,19.60
2018-05-27T19:12:42.837Z,19.10
2018-05-27T19:18:04.133Z,19.20
2018-05-27T19:20:31.688Z,18.50
2018-05-27T20:20:57.185Z,18.30
2018-05-27T20:23:25.470Z,18.20
2018-05-27T20:25:53.750Z,18.20
2018-05-27T20:28:22.029Z,18.20
2018-05-27T20:30:50.359Z,18.20
2018-05-27T20:33:17.845Z,18.20
2018-05-27T20:35:45.361Z,18.30
2018-05-27T20:38:12.893Z,18.40
2018-05-27T20:40:40.417Z,18.30
2018-05-27T20:43:07.925Z,18.40
2018-05-27T20:45:35.433Z,18.30
2018-05-27T20:48:02.944Z,18.20
2018-05-27T20:50:30.452Z,18.20
2018-05-27T20:52:57.960Z,18.30
2018-05-27T20:55:25.461Z,18.20
2018-05-27T20:57:52.967Z,18.30
2018-05-27T21:00:20.481Z,18.30
2018-05-27T21:02:48.002Z,18.30
2018-05-27T21:05:15.508Z,18.30
2018-05-27T21:07:43.014Z,18.30
2018-05-27T21:10:10.521Z,18.20
2018-05-27T21:12:38.028Z,18.20
2018-05-27T22:19:03.879Z,17.90
2018-05-27T22:24:24.862Z,17.80
2018-05-27T22:26:52.357Z,17.70
2018-05-27T22:29:20.631Z,17.60
2018-05-27T22:31:48.892Z,17.60
2018-05-27T22:34:16.381Z,17.50
2018-05-27T22:36:44.652Z,17.50
2018-05-27T22:39:12.920Z,17.50
2018-05-27T22:41:41.182Z,17.60
2018-05-27T22:44:08.687Z,17.50
2018-05-27T22:46:36.193Z,17.60
2018-05-27T22:49:03.694Z,17.60
2018-05-27T22:51:46.144Z,17.60
2018-05-27T22:54:13.676Z,17.60
2018-05-27T22:56:47.905Z,17.60
2018-05-27T22:59:15.453Z,17.40
2018-05-27T23:01:42.957Z,17.40
2018-05-27T23:04:10.467Z,17.40
2018-05-27T23:06:37.971Z,17.40
2018-05-27T23:09:05.490Z,17.30
2018-05-27T23:11:32.989Z,17.20
2018-05-27T23:17:16.745Z,17.00
2018-05-27T23:22:43.287Z,17.00
